Time;durP1;ratioP1;P1;durP2;ratioP2;P2;SDS_P1;SDS_P2;PMS_P1;PMS_P2;Temp;Humidity;BMP_temperature;BMP_pressure;BME280_temperature;BME280_humidity;BME280_pressure;Samples;Min_cycle;Max_cycle;Signal;HPM_P1;HPM_P2
2022/03/09 00:01:38;;;;;;;;;;;;;;;9.26;100.00;98615.88;5079474;28;20014;-81
2022/03/09 00:04:05;;;;;;;;;;;;;;;8.98;100.00;98623.53;5097105;28;20566;-81
2022/03/09 00:06:32;;;;;;;;;;;;;;;9.17;100.00;98616.44;5095399;28;20368;-81
2022/03/09 00:09:00;;;;;;;;;;;;;;;9.45;100.00;98606.78;5095863;28;20422;-81
2022/03/09 00:11:27;;;;;;;;;;;;;;;9.13;100.00;98619.28;5078631;28;19924;-81
2022/03/09 00:13:54;;;;;;;;;;;;;;;8.97;100.00;98610.81;5096147;28;19924;-81
2022/03/09 00:16:21;;;;;;;;;;;;;;;9.32;100.00;98617.75;5079273;28;19924;-81
2022/03/09 00:18:49;;;;;;;;;;;;;;;9.43;100.00;98610.00;5095731;28;19931;-81
2022/03/09 00:21:16;;;;;;;;;;;;;;;9.18;100.00;98616.00;5095970;28;19928;-81
2022/03/09 00:23:44;;;;;;;;;;;;;;;9.25;100.00;98612.31;5095216;28;19935;-81
2022/03/09 00:26:12;;;;;;;;;;;;;;;9.37;100.00;98613.69;5078977;28;19931;-80
2022/03/09 00:28:39;;;;;;;;;;;;;;;9.30;100.00;98627.78;5095841;28;19925;-81
2022/03/09 00:31:07;;;;;;;;;;;;;;;9.31;100.00;98627.34;5095747;28;19924;-81
2022/03/09 00:33:34;;;;;;;;;;;;;;;9.81;100.00;98628.00;5095680;28;19987;-81
2022/03/09 00:36:02;;;;;;;;;;;;;;;9.70;100.00;98627.41;5079247;28;20335;-81
2022/03/09 00:38:29;;;;;;;;;;;;;;;9.49;100.00;98618.66;5095229;28;19933;-81
2022/03/09 00:40:56;;;;;;;;;;;;;;;9.61;100.00;98624.41;5096455;28;19931;-81
2022/03/09 00:43:23;;;;;;;;;;;;;;;9.63;100.00;98610.03;5096451;28;19924;-81
2022/03/09 00:45:51;;;;;;;;;;;;;;;9.62;100.00;98614.03;5095439;28;19924;-81
2022/03/09 00:48:20;;;;;;;;;;;;;;;9.26;100.00;98613.88;5078909;28;19931;-81
2022/03/09 00:50:47;;;;;;;;;;;;;;;9.70;100.00;98621.81;5078651;28;20561;-81
2022/03/09 00:53:16;;;;;;;;;;;;;;;9.40;100.00;98618.41;5094758;28;19924;-81
2022/03/09 00:55:43;;;;;;;;;;;;;;;9.26;100.00;98630.63;5078223;28;19925;-81
2022/03/09 00:58:11;;;;;;;;;;;;;;;9.83;100.00;98631.13;5095088;28;19973;-81
2022/03/09 01:00:38;;;;;;;;;;;;;;;9.76;100.00;98613.72;5078561;28;19971;-81
2022/03/09 01:03:05;;;;;;;;;;;;;;;10.08;100.00;98625.06;5078129;28;20052;-81
2022/03/09 01:05:32;;;;;;;;;;;;;;;10.09;100.00;98621.06;5094713;28;19924;-81
2022/03/09 01:08:00;;;;;;;;;;;;;;;9.39;100.00;98622.44;5059780;28;20441;-81
2022/03/09 01:10:27;;;;;;;;;;;;;;;9.40;100.00;98618.41;5077829;28;19970;-81
2022/03/09 01:12:55;;;;;;;;;;;;;;;9.13;100.00;98622.06;5061879;28;20104;-81
2022/03/09 01:15:22;;;;;;;;;;;;;;;9.72;100.00;98629.75;5078078;28;19924;-81
2022/03/09 01:17:49;;;;;;;;;;;;;;;9.39;100.00;98628.78;5077942;28;20023;-81
2022/03/09 01:20:16;;;;;;;;;;;;;;;9.29;100.00;98632.56;5061512;28;19925;-81
2022/03/09 01:22:44;;;;;;;;;;;;;;;9.22;100.00;98634.69;5061511;28;19931;-80
2022/03/09 01:25:33;;;;;;;;;;;;;;;9.38;100.00;98648.72;5095687;28;19931;-81
2022/03/09 01:28:01;;;;;;;;;;;;;;;9.07;100.00;98639.72;5094533;28;19973;-81
2022/03/09 01:30:28;;;;;;;;;;;;;;;9.00;100.00;98632.25;5078248;28;19931;-81
2022/03/09 01:32:56;;;;;;;;;;;;;;;8.82;100.00;98645.69;5095766;28;19960;-80
2022/03/09 01:35:23;;;;;;;;;;;;;;;8.98;100.00;98645.81;5077661;28;19970;-81
2022/03/09 01:37:51;;;;;;;;;;;;;;;9.15;100.00;98641.94;5094242;28;19925;-81
2022/03/09 01:40:18;;;;;;;;;;;;;;;9.34;100.00;98636.84;5076776;28;19931;-81
2022/03/09 01:42:46;;;;;;;;;;;;;;;9.41;100.00;98628.34;5095629;28;20286;-81
2022/03/09 01:45:14;;;;;;;;;;;;;;;9.53;100.00;98616.56;5077457;28;20015;-81
2022/03/09 01:47:44;;;;;;;;;;;;;;;9.60;100.00;98622.81;5094479;28;19924;-81
2022/03/09 01:50:11;;;;;;;;;;;;;;;9.42;100.00;98621.56;5094353;28;19931;-81
2022/03/09 01:52:42;;;;;;;;;;;;;;;9.13;100.00;98613.72;5093927;28;20035;-81
2022/03/09 01:55:10;;;;;;;;;;;;;;;9.06;100.00;98597.13;5077449;28;19924;-81
2022/03/09 01:57:41;;;;;;;;;;;;;;;9.25;100.00;98600.38;5060947;28;19950;-81
2022/03/09 02:00:08;;;;;;;;;;;;;;;9.43;100.00;98595.25;5093803;28;19924;-81
2022/03/09 02:02:36;;;;;;;;;;;;;;;9.52;100.00;98603.84;5060737;28;19957;-81
2022/03/09 02:05:04;;;;;;;;;;;;;;;9.39;100.00;98600.13;5094071;28;19924;-81
2022/03/09 02:10:25;;;;;;;;;;;;;;;9.48;100.00;98628.25;5076952;28;19928;-81
2022/03/09 02:12:52;;;;;;;;;;;;;;;9.19;100.00;98619.59;5077159;28;20256;-81
2022/03/09 02:15:20;;;;;;;;;;;;;;;8.99;100.00;98610.38;5093971;28;19925;-81
2022/03/09 02:17:47;;;;;;;;;;;;;;;9.10;100.00;98600.63;5077194;28;19955;-81
2022/03/09 02:20:14;;;;;;;;;;;;;;;9.82;100.00;98593.28;5094398;28;20010;-81
2022/03/09 02:22:43;;;;;;;;;;;;;;;9.62;100.00;98581.31;5060307;28;19986;-81
2022/03/09 02:25:13;;;;;;;;;;;;;;;8.98;100.00;98592.09;5077003;28;19930;-81
2022/03/09 02:27:42;;;;;;;;;;;;;;;9.33;100.00;98601.84;5059825;28;19924;-81
2022/03/09 02:30:11;;;;;;;;;;;;;;;9.66;100.00;98603.59;5093658;28;19928;-81
2022/03/09 02:32:42;;;;;;;;;;;;;;;9.91;100.00;98603.84;5093818;28;19924;-81
2022/03/09 02:35:11;;;;;;;;;;;;;;;9.91;100.00;98601.06;5093003;28;19967;-81
2022/03/09 02:37:38;;;;;;;;;;;;;;;9.51;100.00;98614.22;5076740;28;19923;-81
2022/03/09 02:40:08;;;;;;;;;;;;;;;9.68;100.00;98606.75;5093353;28;20022;-81
2022/03/09 02:42:36;;;;;;;;;;;;;;;9.72;100.00;98613.03;5093265;28;19928;-81
2022/03/09 02:45:04;;;;;;;;;;;;;;;9.98;100.00;98598.91;5076371;28;19924;-81
2022/03/09 02:47:37;;;;;;;;;;;;;;;9.18;100.00;98597.72;5092789;28;19924;-81
2022/03/09 02:50:05;;;;;;;;;;;;;;;8.82;100.00;98606.69;5092994;28;19928;-81
2022/03/09 02:52:35;;;;;;;;;;;;;;;9.18;100.00;98618.81;5092979;28;19931;-81
2022/03/09 02:55:03;;;;;;;;;;;;;;;9.12;100.00;98614.13;5093290;28;19928;-81
2022/03/09 02:57:30;;;;;;;;;;;;;;;9.60;100.00;98613.66;5076426;28;19931;-80
2022/03/09 02:59:57;;;;;;;;;;;;;;;9.19;100.00;98612.00;5093082;28;20359;-80
2022/03/09 03:02:24;;;;;;;;;;;;;;;8.78;100.00;98610.75;5059765;28;19931;-80
2022/03/09 03:04:51;;;;;;;;;;;;;;;9.46;100.00;98623.09;5092731;28;19924;-80
2022/03/09 03:07:19;;;;;;;;;;;;;;;8.82;100.00;98609.47;5091749;28;20348;-80
2022/03/09 03:09:49;;;;;;;;;;;;;;;8.85;100.00;98600.25;5092013;28;20463;-79
2022/03/09 03:12:17;;;;;;;;;;;;;;;8.92;100.00;98604.94;5075541;28;19927;-80
2022/03/09 03:14:45;;;;;;;;;;;;;;;9.31;100.00;98615.41;5092641;28;20352;-80
2022/03/09 03:17:12;;;;;;;;;;;;;;;8.98;100.00;98603.25;5075200;28;19931;-80
2022/03/09 03:19:39;;;;;;;;;;;;;;;9.14;100.00;98629.22;5092202;28;20020;-80
2022/03/09 03:22:06;;;;;;;;;;;;;;;9.47;100.00;98615.50;5093073;28;20139;-80
2022/03/09 03:24:33;;;;;;;;;;;;;;;9.59;100.00;98595.38;5092361;28;19924;-80
2022/03/09 03:27:01;;;;;;;;;;;;;;;8.98;100.00;98592.88;5094094;28;19924;-80
2022/03/09 03:29:28;;;;;;;;;;;;;;;9.14;100.00;98593.00;5092633;28;19931;-80
2022/03/09 03:31:55;;;;;;;;;;;;;;;9.43;100.00;98595.25;5075972;28;19946;-80
2022/03/09 03:34:22;;;;;;;;;;;;;;;9.40;100.00;98596.91;5092482;28;19928;-80
2022/03/09 03:36:51;;;;;;;;;;;;;;;9.31;100.00;98587.53;5075612;28;19924;-80
2022/03/09 03:39:18;;;;;;;;;;;;;;;9.33;100.00;98576.75;5093494;28;19924;-80
2022/03/09 03:41:45;;;;;;;;;;;;;;;9.50;100.00;98565.22;5096357;28;19931;-80
2022/03/09 03:44:12;;;;;;;;;;;;;;;9.19;100.00;98567.41;5062698;28;19973;-80
2022/03/09 03:46:41;;;;;;;;;;;;;;;9.45;100.00;98573.31;5097235;28;19928;-80
2022/03/09 03:49:08;;;;;;;;;;;;;;;8.99;100.00;98574.16;5062711;28;19924;-80
2022/03/09 03:51:36;;;;;;;;;;;;;;;9.52;100.00;98581.53;5063265;28;19924;-80
2022/03/09 03:54:03;;;;;;;;;;;;;;;8.97;100.00;98565.44;5079254;28;20003;-80
2022/03/09 03:56:30;;;;;;;;;;;;;;;8.86;100.00;98556.50;5079125;28;19924;-79
2022/03/09 03:58:58;;;;;;;;;;;;;;;8.58;100.00;98552.16;5079202;28;19977;-80
2022/03/09 04:01:25;;;;;;;;;;;;;;;8.84;100.00;98576.41;5095951;28;19977;-80
2022/03/09 04:04:11;;;;;;;;;;;;;;;8.99;100.00;98600.03;5091715;28;19962;-81
2022/03/09 04:06:38;;;;;;;;;;;;;;;9.14;100.00;98609.72;5091633;28;20392;-82
2022/03/09 04:09:06;;;;;;;;;;;;;;;9.37;100.00;98613.69;5074110;28;19960;-81
2022/03/09 04:11:37;;;;;;;;;;;;;;;9.31;100.00;98615.41;5091491;28;19924;-82
2022/03/09 04:14:05;;;;;;;;;;;;;;;9.29;100.00;98609.44;5073333;28;20011;-83
2022/03/09 04:16:32;;;;;;;;;;;;;;;9.28;100.00;98599.53;5089977;28;19924;-83
2022/03/09 04:19:01;;;;;;;;;;;;;;;9.20;100.00;98610.00;5074011;28;19932;-83
2022/03/09 04:21:28;;;;;;;;;;;;;;;9.31;100.00;98612.63;5073925;28;19932;-82
2022/03/09 04:23:55;;;;;;;;;;;;;;;9.18;100.00;98568.63;5107458;28;20257;-82
2022/03/09 04:26:22;;;;;;;;;;;;;;;9.02;100.00;98603.97;5091434;28;19950;-82
2022/03/09 04:28:49;;;;;;;;;;;;;;;9.50;100.00;98606.25;5106835;28;19932;-82
2022/03/09 04:31:17;;;;;;;;;;;;;;;9.48;100.00;98626.22;5106980;28;19925;-82
2022/03/09 04:33:46;;;;;;;;;;;;;;;9.21;100.00;98610.81;5091209;28;19970;-82
2022/03/09 04:36:14;;;;;;;;;;;;;;;9.62;100.00;98614.03;5090017;28;19977;-82
2022/03/09 04:38:41;;;;;;;;;;;;;;;9.41;100.00;98622.78;5089857;28;19986;-81
2022/03/09 04:41:09;;;;;;;;;;;;;;;9.26;100.00;98608.31;5073081;28;20272;-82
2022/03/09 04:43:36;;;;;;;;;;;;;;;9.15;100.00;98602.13;5123003;28;20007;-81
2022/03/09 04:46:03;;;;;;;;;;;;;;;9.25;100.00;98614.31;5123158;28;19947;-81
2022/03/09 04:48:31;;;;;;;;;;;;;;;9.30;100.00;98624.97;5106228;28;19928;-81
2022/03/09 04:51:02;;;;;;;;;;;;;;;9.09;100.00;98603.84;5072706;28;19952;-81
2022/03/09 04:53:29;;;;;;;;;;;;;;;9.26;100.00;98615.88;5090667;28;19924;-81
2022/03/09 04:55:57;;;;;;;;;;;;;;;9.15;100.00;98611.28;5089718;28;19924;-81
2022/03/09 04:58:26;;;;;;;;;;;;;;;9.32;100.00;98601.03;5122877;28;19924;-81
2022/03/09 05:00:53;;;;;;;;;;;;;;;9.00;100.00;98607.19;5089318;28;20019;-81
2022/03/09 05:03:21;;;;;;;;;;;;;;;8.82;100.00;98584.41;5088975;28;20457;-81
2022/03/09 05:05:48;;;;;;;;;;;;;;;8.87;100.00;98589.50;5072400;28;19970;-81
2022/03/09 05:08:15;;;;;;;;;;;;;;;8.95;100.00;98621.56;5072382;28;19924;-81
2022/03/09 05:10:42;;;;;;;;;;;;;;;9.38;100.00;98632.00;5090621;28;19942;-81
2022/03/09 05:13:09;;;;;;;;;;;;;;;9.25;100.00;98628.25;5089422;28;20375;-81
2022/03/09 05:15:36;;;;;;;;;;;;;;;9.35;100.00;98647.56;5091620;28;19931;-81
2022/03/09 05:18:04;;;;;;;;;;;;;;;9.14;100.00;98626.44;5075490;28;19931;-81
2022/03/09 05:20:33;;;;;;;;;;;;;;;9.38;100.00;98652.31;5076874;28;19925;-81
2022/03/09 05:23:01;;;;;;;;;;;;;;;9.37;100.00;98649.94;5076509;28;20792;-81
2022/03/09 05:25:29;;;;;;;;;;;;;;;9.24;100.00;98637.84;5075470;28;19924;-81
2022/03/09 05:27:58;;;;;;;;;;;;;;;9.41;100.00;98643.09;5042408;28;19924;-81
2022/03/09 05:30:25;;;;;;;;;;;;;;;9.15;100.00;98630.81;5075596;28;19941;-81
2022/03/09 05:32:52;;;;;;;;;;;;;;;8.94;100.00;98625.59;5092430;28;19925;-81
2022/03/09 05:35:20;;;;;;;;;;;;;;;9.01;100.00;98642.19;5092310;28;20288;-82
2022/03/09 05:37:48;;;;;;;;;;;;;;;9.00;100.00;98629.47;5075320;28;19956;-81
2022/03/09 05:40:15;;;;;;;;;;;;;;;9.38;100.00;98618.03;5075538;28;19924;-81
2022/03/09 05:42:43;;;;;;;;;;;;;;;8.69;100.00;98607.69;5058890;28;19931;-81
2022/03/09 05:45:12;;;;;;;;;;;;;;;8.98;100.00;98625.53;5099322;27;19927;-81
2022/03/09 05:47:48;;;;;;;;;;;;;;;8.86;100.00;98607.41;5095178;28;19928;-81
2022/03/09 05:50:17;;;;;;;;;;;;;;;8.77;100.00;98637.78;5096410;28;19924;-81
2022/03/09 05:52:47;;;;;;;;;;;;;;;9.02;100.00;98613.13;5095288;28;19924;-81
2022/03/09 05:55:14;;;;;;;;;;;;;;;9.18;100.00;98628.38;5095312;28;19924;-81
2022/03/09 05:57:41;;;;;;;;;;;;;;;8.84;100.00;98612.63;5077990;28;19928;-81
2022/03/09 06:00:09;;;;;;;;;;;;;;;9.13;100.00;98630.44;5094970;28;20398;-81
2022/03/09 06:02:39;;;;;;;;;;;;;;;9.15;100.00;98636.38;5094768;28;19924;-81
2022/03/09 06:05:07;;;;;;;;;;;;;;;8.84;100.00;98615.41;5078358;28;20368;-81
2022/03/09 06:07:35;;;;;;;;;;;;;;;9.12;100.00;98628.88;5071089;28;19946;-81
2022/03/09 06:10:02;;;;;;;;;;;;;;;9.06;100.00;98622.19;5111766;28;19963;-81
2022/03/09 06:12:29;;;;;;;;;;;;;;;8.83;100.00;98619.38;5094469;28;19977;-81
2022/03/09 06:14:57;;;;;;;;;;;;;;;9.11;100.00;98641.22;5076693;28;20311;-81
2022/03/09 06:17:25;;;;;;;;;;;;;;;8.75;100.00;98612.34;5074346;28;20019;-81
2022/03/09 06:19:53;;;;;;;;;;;;;;;9.12;100.00;98655.94;5074562;28;19924;-81
2022/03/09 06:22:20;;;;;;;;;;;;;;;9.09;100.00;98648.41;5075582;28;19931;-81
2022/03/09 06:24:47;;;;;;;;;;;;;;;9.06;100.00;98636.13;5057572;28;19924;-81
2022/03/09 06:27:14;;;;;;;;;;;;;;;9.12;100.00;98639.22;5056746;28;20292;-81
2022/03/09 06:29:42;;;;;;;;;;;;;;;8.87;100.00;98620.16;5075420;28;19935;-81
2022/03/09 06:32:09;;;;;;;;;;;;;;;9.10;100.00;98628.50;5074343;28;19970;-81
2022/03/09 06:34:36;;;;;;;;;;;;;;;9.37;100.00;98652.72;5057346;28;19931;-81
2022/03/09 06:37:04;;;;;;;;;;;;;;;8.96;100.00;98623.19;5057490;28;20372;-81
2022/03/09 06:39:31;;;;;;;;;;;;;;;9.01;100.00;98614.31;5057361;28;19931;-82
2022/03/09 06:41:58;;;;;;;;;;;;;;;8.85;100.00;98633.69;5057228;28;19928;-81
2022/03/09 06:44:25;;;;;;;;;;;;;;;8.61;100.00;98622.94;5057321;28;19924;-83
2022/03/09 06:46:52;;;;;;;;;;;;;;;9.05;100.00;98648.50;5073741;28;19925;-82
2022/03/09 06:49:19;;;;;;;;;;;;;;;8.86;100.00;98635.25;5040852;28;19924;-82
2022/03/09 06:51:49;;;;;;;;;;;;;;;8.84;100.00;98657.22;5057059;28;19932;-89
2022/03/09 06:54:21;;;;;;;;;;;;;;;9.31;100.00;98643.28;5057854;28;19928;-88
2022/03/09 06:56:52;;;;;;;;;;;;;;;9.14;100.00;98640.38;5073399;28;19924;-87
2022/03/09 06:59:20;;;;;;;;;;;;;;;9.18;100.00;98623.56;5041104;28;19924;-86
2022/03/09 07:01:50;;;;;;;;;;;;;;;9.10;100.00;98648.00;5057638;28;19990;-84
2022/03/09 07:04:22;;;;;;;;;;;;;;;9.03;100.00;98653.69;5057184;28;19924;-86
2022/03/09 07:06:50;;;;;;;;;;;;;;;9.27;100.00;98653.72;5057022;28;19932;-87
2022/03/09 07:09:20;;;;;;;;;;;;;;;9.23;100.00;98652.97;5041305;28;19924;-87
2022/03/09 07:11:50;;;;;;;;;;;;;;;9.19;100.00;98658.63;5073510;28;19925;-86
2022/03/09 07:14:17;;;;;;;;;;;;;;;9.45;100.00;98659.75;5040218;28;20375;-87
2022/03/09 07:16:47;;;;;;;;;;;;;;;9.47;100.00;98648.94;5073237;28;20426;-86
2022/03/09 07:19:24;;;;;;;;;;;;;;;9.30;100.00;98675.16;5074309;28;19974;-85
2022/03/09 07:22:22;;;;;;;;;;;;;;;9.16;100.00;98653.91;5062264;28;19928;-85
2022/03/09 07:24:52;;;;;;;;;;;;;;;9.51;100.00;98674.78;5072619;28;20411;-88
2022/03/09 07:27:19;;;;;;;;;;;;;;;9.40;100.00;98668.59;5073511;28;20342;-87
2022/03/09 07:29:47;;;;;;;;;;;;;;;9.09;100.00;98659.56;5072976;28;20257;-86
2022/03/09 07:32:15;;;;;;;;;;;;;;;9.11;100.00;98648.78;5074403;28;19962;-87
2022/03/09 07:34:57;;;;;;;;;;;;;;;9.32;100.00;98658.78;5056058;28;20013;-86
2022/03/09 07:37:24;;;;;;;;;;;;;;;8.80;100.00;98670.38;5092741;28;19924;-86
2022/03/09 07:39:53;;;;;;;;;;;;;;;9.11;100.00;98663.53;5064955;28;19981;-88
2022/03/09 07:42:23;;;;;;;;;;;;;;;9.39;100.00;98672.63;5074350;28;19946;-87
2022/03/09 07:44:50;;;;;;;;;;;;;;;9.39;100.00;98656.66;5036229;28;19924;-86
2022/03/09 07:47:20;;;;;;;;;;;;;;;9.68;100.00;98670.91;5052813;28;19925;-87
2022/03/09 07:49:51;;;;;;;;;;;;;;;9.90;100.00;98667.28;5053821;28;19925;-87
2022/03/09 07:52:19;;;;;;;;;;;;;;;9.55;100.00;98669.94;5052549;28;20019;-88
2022/03/09 07:54:47;;;;;;;;;;;;;;;9.80;100.00;98670.28;5096156;28;20021;-87
2022/03/09 07:57:14;;;;;;;;;;;;;;;9.52;100.00;98677.16;5092912;28;19924;-87
2022/03/09 07:59:41;;;;;;;;;;;;;;;9.64;100.00;98672.94;5093998;28;19924;-87
2022/03/09 08:02:11;;;;;;;;;;;;;;;9.32;100.00;98676.31;5075785;28;20337;-90
2022/03/09 08:04:49;;;;;;;;;;;;;;;9.80;100.00;98682.19;5076318;28;19955;-94
2022/03/09 08:07:18;;;;;;;;;;;;;;;9.72;100.00;98675.19;5028112;28;19931;-90
2022/03/09 08:09:49;;;;;;;;;;;;;;;9.00;100.00;98679.63;5072680;28;20384;-92
2022/03/09 08:12:17;;;;;;;;;;;;;;;9.64;100.00;98659.00;5040017;28;20027;-91
2022/03/09 08:16:58;;;;;;;;;;;;;;;9.62;100.00;98672.59;5090823;27;19913;-90
2022/03/09 08:19:28;;;;;;;;;;;;;;;9.84;100.00;98662.63;5071947;28;20240;-90
2022/03/09 08:21:57;;;;;;;;;;;;;;;10.04;100.00;98666.22;5057476;28;20006;-91
2022/03/09 08:24:29;;;;;;;;;;;;;;;10.19;100.00;98670.31;5040205;28;19932;-90
2022/03/09 08:27:06;;;;;;;;;;;;;;;10.25;100.00;98665.78;5056766;28;19947;-90
2022/03/09 08:29:37;;;;;;;;;;;;;;;10.11;100.00;98657.72;5040228;28;19994;-91
2022/03/09 08:32:06;;;;;;;;;;;;;;;10.24;100.00;98661.41;5073606;28;19924;-90
2022/03/09 08:34:34;;;;;;;;;;;;;;;10.08;100.00;98664.16;5056639;28;19924;-91
2022/03/09 08:37:13;;;;;;;;;;;;;;;10.23;100.00;98662.63;5073699;28;19925;-90
2022/03/09 08:39:51;;;;;;;;;;;;;;;10.15;100.00;98666.78;5042083;28;19946;-91
2022/03/09 08:42:22;;;;;;;;;;;;;;;10.36;100.00;98669.16;5057634;28;19924;-90
2022/03/09 08:45:06;;;;;;;;;;;;;;;9.92;100.00;98669.63;5075676;28;19947;-90
2022/03/09 08:47:41;;;;;;;;;;;;;;;10.29;100.00;98660.91;5056163;28;19928;-90
2022/03/09 08:50:09;;;;;;;;;;;;;;;9.90;100.00;98658.09;5056470;28;19924;-91
2022/03/09 08:53:00;;;;;;;;;;;;;;;10.00;100.00;98671.06;5056380;28;19966;-88
2022/03/09 08:55:27;;;;;;;;;;;;;;;10.19;100.00;98647.97;5072817;28;19946;-90
2022/03/09 08:57:57;;;;;;;;;;;;;;;10.12;100.00;98631.34;5056738;28;20434;-91
2022/03/09 09:00:25;;;;;;;;;;;;;;;10.39;100.00;98663.47;5056747;28;19974;-90
2022/03/09 09:02:55;;;;;;;;;;;;;;;10.64;100.00;98674.91;5057076;28;19924;-92
2022/03/09 09:05:25;;;;;;;;;;;;;;;10.62;100.00;98657.00;5080150;28;19924;-89
2022/03/09 09:07:52;;;;;;;;;;;;;;;10.42;100.00;98662.63;5019434;28;19925;-88
2022/03/09 09:10:20;;;;;;;;;;;;;;;10.74;100.00;98653.50;5052436;28;19928;-90
2022/03/09 09:12:50;;;;;;;;;;;;;;;10.44;100.00;98659.38;5051914;28;19955;-90
2022/03/09 09:15:17;;;;;;;;;;;;;;;10.63;100.00;98666.97;5063422;28;19929;-89
2022/03/09 09:17:45;;;;;;;;;;;;;;;11.07;100.00;98680.31;5044922;28;19924;-89
2022/03/09 09:20:16;;;;;;;;;;;;;;;10.59;100.00;98657.84;5038737;28;19938;-90
2022/03/09 09:22:44;;;;;;;;;;;;;;;10.43;100.00;98658.63;5032755;28;19925;-91
2022/03/09 09:25:31;;;;;;;;;;;;;;;11.29;100.00;98647.00;5042097;28;19985;-90
2022/03/09 09:27:59;;;;;;;;;;;;;;;11.21;100.00;98646.38;5060141;28;19931;-90
2022/03/09 09:30:27;;;;;;;;;;;;;;;11.14;100.00;98657.75;5026216;28;19931;-88
2022/03/09 09:32:54;;;;;;;;;;;;;;;11.63;100.00;98655.72;5042211;28;19963;-89
2022/03/09 09:35:21;;;;;;;;;;;;;;;11.01;100.00;98637.31;5027337;28;19946;-93
2022/03/09 09:37:54;;;;;;;;;;;;;;;11.49;100.00;98640.06;5027988;28;19925;-95
2022/03/09 09:40:24;;;;;;;;;;;;;;;11.61;100.00;98630.97;5011061;28;19939;-95
2022/03/09 09:42:55;;;;;;;;;;;;;;;11.69;100.00;98643.53;5027309;28;19925;-93
2022/03/09 09:45:28;;;;;;;;;;;;;;;11.40;100.00;98644.72;5043545;28;20072;-93
2022/03/09 09:47:58;;;;;;;;;;;;;;;11.56;100.00;98639.09;5026610;28;19924;-91
2022/03/09 09:50:26;;;;;;;;;;;;;;;11.46;100.00;98618.56;5058745;28;20149;-90
2022/03/09 09:52:56;;;;;;;;;;;;;;;11.92;100.00;98632.09;5026333;28;19925;-90
2022/03/09 09:55:28;;;;;;;;;;;;;;;11.98;100.00;98624.75;5026091;28;19930;-91
2022/03/09 09:57:58;;;;;;;;;;;;;;;11.61;100.00;98649.75;5025222;28;20392;-91
2022/03/09 10:00:28;;;;;;;;;;;;;;;11.39;100.00;98624.34;5041418;28;19959;-91
2022/03/09 10:03:04;;;;;;;;;;;;;;;11.30;100.00;98620.63;5025901;28;19924;-90
2022/03/09 10:05:32;;;;;;;;;;;;;;;11.18;100.00;98613.69;5024168;28;20380;-91
2022/03/09 10:08:02;;;;;;;;;;;;;;;11.68;100.00;98608.41;5008441;28;19978;-91
2022/03/09 10:10:36;;;;;;;;;;;;;;;11.78;100.00;98623.34;5041175;28;19924;-90
2022/03/09 10:13:21;;;;;;;;;;;;;;;11.97;100.00;98619.59;5024811;28;19924;-91
2022/03/09 10:16:06;;;;;;;;;;;;;;;11.99;100.00;98623.53;5024763;28;19932;-91
2022/03/09 10:18:35;;;;;;;;;;;;;;;11.63;100.00;98628.50;5057580;28;20381;-91
2022/03/09 10:21:13;;;;;;;;;;;;;;;11.76;100.00;98601.38;5024687;28;19932;-91
2022/03/09 10:24:11;;;;;;;;;;;;;;;11.78;100.00;98603.75;5040885;28;19928;-92
2022/03/09 10:26:42;;;;;;;;;;;;;;;11.92;100.00;98606.16;5030538;28;20027;-89
2022/03/09 10:29:14;;;;;;;;;;;;;;;12.05;100.00;98606.97;5024304;28;19924;-89
2022/03/09 10:31:48;;;;;;;;;;;;;;;12.50;100.00;98614.00;5041205;28;19974;-90
2022/03/09 10:34:22;;;;;;;;;;;;;;;12.53;100.00;98621.50;5040466;28;20009;-88
2022/03/09 10:36:58;;;;;;;;;;;;;;;12.78;100.00;98615.88;5040778;28;19929;-89
2022/03/09 10:39:29;;;;;;;;;;;;;;;12.56;100.00;98606.59;5039707;28;19925;-89
2022/03/09 10:41:58;;;;;;;;;;;;;;;12.80;100.00;98609.06;5040564;28;19971;-89
2022/03/09 10:44:45;;;;;;;;;;;;;;;12.49;100.00;98606.81;5040852;28;20304;-90
2022/03/09 10:47:35;;;;;;;;;;;;;;;11.58;100.00;98609.47;5023800;28;19924;-91
2022/03/09 10:50:20;;;;;;;;;;;;;;;12.13;100.00;98611.91;5040672;28;20402;-91
2022/03/09 10:52:51;;;;;;;;;;;;;;;12.26;100.00;98614.72;5040380;28;19925;-92
2022/03/09 10:55:23;;;;;;;;;;;;;;;11.97;100.00;98609.19;5058037;28;20375;-90
2022/03/09 10:58:05;;;;;;;;;;;;;;;12.06;100.00;98575.72;5007485;28;19929;-91
2022/03/09 11:00:34;;;;;;;;;;;;;;;12.47;100.00;98589.66;5040110;28;19982;-91
2022/03/09 11:03:09;;;;;;;;;;;;;;;12.21;100.00;98613.28;5024177;28;19925;-89
2022/03/09 11:05:46;;;;;;;;;;;;;;;12.75;100.00;98614.00;5023571;28;19955;-91
2022/03/09 11:08:22;;;;;;;;;;;;;;;12.58;100.00;98604.13;5024121;28;20027;-92
2022/03/09 11:10:54;;;;;;;;;;;;;;;12.92;100.00;98594.25;5023879;28;19928;-92
2022/03/09 11:13:22;;;;;;;;;;;;;;;12.60;100.00;98615.66;5040391;28;19925;-91
2022/03/09 11:15:50;;;;;;;;;;;;;;;12.27;100.00;98611.50;5023327;28;20376;-91
2022/03/09 11:18:21;;;;;;;;;;;;;;;12.40;100.00;98587.06;5023418;28;19974;-91
2022/03/09 11:20:56;;;;;;;;;;;;;;;11.72;100.00;98586.69;5039926;28;20010;-92
2022/03/09 11:23:28;;;;;;;;;;;;;;;12.68;100.00;98608.63;5023777;28;19924;-90
2022/03/09 11:26:01;;;;;;;;;;;;;;;12.72;100.00;98614.13;5056289;28;19952;-89
2022/03/09 11:28:34;;;;;;;;;;;;;;;13.01;100.00;98581.13;5039283;28;19966;-92
2022/03/09 11:31:04;;;;;;;;;;;;;;;13.67;100.00;98619.34;5023087;28;19931;-91
2022/03/09 11:33:39;;;;;;;;;;;;;;;13.70;100.00;98612.81;5039083;28;19924;-91
2022/03/09 11:36:26;;;;;;;;;;;;;;;13.66;100.00;98612.19;5023127;28;19925;-91
2022/03/09 11:39:13;;;;;;;;;;;;;;;11.99;100.00;98601.13;5022819;28;20375;-90
2022/03/09 11:41:41;;;;;;;;;;;;;;;13.09;100.00;98615.34;5029294;28;19947;-88
2022/03/09 11:44:21;;;;;;;;;;;;;;;11.66;100.00;98588.47;5022703;28;20343;-89
2022/03/09 11:46:58;;;;;;;;;;;;;;;12.77;100.00;98625.53;5039608;28;19986;-89
2022/03/09 11:50:05;;;;;;;;;;;;;;;13.11;100.00;98612.88;5039367;28;19935;-91
2022/03/09 11:52:53;;;;;;;;;;;;;;;12.72;100.00;98606.47;5023119;28;19971;-90
2022/03/09 11:55:25;;;;;;;;;;;;;;;13.23;100.00;98623.28;5039554;28;19924;-88
2022/03/09 11:58:05;;;;;;;;;;;;;;;13.29;100.00;98608.25;5025142;28;20383;-88
2022/03/09 12:00:32;;;;;;;;;;;;;;;12.36;100.00;98605.22;5039114;28;19974;-88
2022/03/09 12:03:00;;;;;;;;;;;;;;;13.11;100.00;98607.25;5039233;28;20396;-89
2022/03/09 12:05:31;;;;;;;;;;;;;;;12.24;100.00;98609.56;5055891;28;19928;-89
2022/03/09 12:08:06;;;;;;;;;;;;;;;13.04;100.00;98597.06;5023098;28;20059;-89
2022/03/09 12:10:46;;;;;;;;;;;;;;;13.33;100.00;98608.13;5039054;28;19928;-88
2022/03/09 12:13:15;;;;;;;;;;;;;;;13.16;100.00;98613.06;5022227;28;19924;-88
2022/03/09 12:16:01;;;;;;;;;;;;;;;13.43;100.00;98602.16;5051499;28;19932;-89
2022/03/09 12:18:32;;;;;;;;;;;;;;;13.20;100.00;98598.94;5019494;28;20368;-89
2022/03/09 12:21:00;;;;;;;;;;;;;;;12.20;100.00;98599.72;5019135;28;19925;-88
2022/03/09 12:23:33;;;;;;;;;;;;;;;12.59;100.00;98611.31;5019920;28;19924;-89
2022/03/09 12:26:03;;;;;;;;;;;;;;;12.86;100.00;98593.25;5018827;28;19924;-89
2022/03/09 12:28:34;;;;;;;;;;;;;;;12.60;100.00;98629.69;5018748;28;19932;-88
2022/03/09 12:31:09;;;;;;;;;;;;;;;13.12;100.00;98623.63;5020384;28;19925;-89
2022/03/09 12:33:39;;;;;;;;;;;;;;;13.22;100.00;98605.69;5035592;28;20402;-87
2022/03/09 12:36:12;;;;;;;;;;;;;;;13.21;100.00;98617.38;5018697;28;19925;-90
2022/03/09 12:38:57;;;;;;;;;;;;;;;12.98;100.00;98620.50;5051930;28;19929;-90
2022/03/09 12:41:26;;;;;;;;;;;;;;;12.93;100.00;98612.63;5051668;28;19978;-88
2022/03/09 12:43:56;;;;;;;;;;;;;;;12.66;100.00;98607.50;5051399;28;19932;-89
2022/03/09 12:46:27;;;;;;;;;;;;;;;12.50;100.00;98636.41;5035699;28;20095;-89
2022/03/09 12:49:01;;;;;;;;;;;;;;;11.92;100.00;98620.91;5035082;28;19925;-89
2022/03/09 12:51:37;;;;;;;;;;;;;;;13.15;100.00;98619.94;5019594;28;19928;-91
2022/03/09 12:54:44;;;;;;;;;;;;;;;13.30;100.00;98600.63;5051705;28;19929;-89
2022/03/09 12:57:16;;;;;;;;;;;;;;;12.41;100.00;98599.84;5034875;28;19931;-88
2022/03/09 12:59:58;;;;;;;;;;;;;;;12.30;100.00;98616.19;5051284;28;20280;-89
2022/03/09 13:02:39;;;;;;;;;;;;;;;13.08;100.00;98614.56;5036703;28;19925;-88
2022/03/09 13:05:10;;;;;;;;;;;;;;;12.88;100.00;98604.78;5055449;28;20384;-89